Air Navigation Services of Czech Republic  
Last data update:  22.06.2017 23:50:09 UTC Česká verze
   METEO Page displayed:  22.06.2017 23:51:13 UTC  
help
METAR EDDB 222320Z 15006KT 110V200 9999 -RA NSC 18/17 Q1006 TEMPO 27020G40KT 4000 TSRA BKN020CB=
METAR EDDC 222320Z 36007KT 340V070 9999 SHRA VCTS SCT032CB SCT048 BKN094 17/16 Q1012=
METAR EDDE 222320Z 26011KT CAVOK 18/17 Q1010=
METAR EDDF 222320Z 30008KT 270V350 CAVOK 25/17 Q1011 NOSIG=
METAR EDDM 222320Z 26005KT 220V330 9999 -TSRA BKN045CB 21/17 Q1014 RESHGR BECMG NSW=
METAR EDDN 222320Z 26011KT CAVOK 26/16 Q1011=
METAR EDDP 222320Z 11011KT 9999 -SHRA FEW007 SCT015CB 18/17 Q1009 RETSRA NOSIG=
METAR EDDT 222320Z VRB02KT 9999 -RA FEW035 OVC110 18/17 Q1006=
METAR EDQM 221820Z 03011KT 350V070 9999 FEW048 BKN064 22/13 Q1014=
METAR EPBY 222330Z 22005KT 9999 -SHRA FEW046 SCT060CB 17/13 Q1007 =
METAR EPGD 222330Z 36002KT CAVOK 13/12 Q1006 =
METAR EPKK 222330Z 05004KT CAVOK 17/14 Q1009 =
METAR EPKT 222330Z 34004KT 260V020 CAVOK 19/12 Q1010 =
METAR EPLL 222330Z VRB01KT CAVOK 18/12 Q1007 =
METAR EPPO 222330Z 25009KT 9999 SHRA BKN040CB 17/16 Q1008 RETS =
METAR EPRZ 222330Z 21005KT CAVOK 18/12 Q1010 =
METAR EPWA 222330Z 15004KT CAVOK 17/12 Q1008 NOSIG=
METAR EPWR 222330Z 26008KT 9999 FEW011CB 21/13 Q1009 =
METAR LHBP 222330Z VRB03KT CAVOK 22/17 Q1012 NOSIG=
METAR LHSM 221545Z 20004KT CAVOK 31/17 Q1013 NOSIG=
SPECI LKCV 222336Z 17008KT 9999 VCTS FEW040CB BKN130 18/17 Q1010 =
SPECI LKKB 222323Z VRB16G27KT 5000 +TSRA FEW014 SCT036CB SCT073 17/16 Q1015 =
METAR LKKU NIL
METAR LKKV 222300Z VRB06KT 9999 -SHRA VCTS SCT060CB 15/14 Q1013 RMK REG QNH 1007=
SPECI LKLN 222338Z AUTO VRB07KT 9999 -RA FEW006 SCT031 OVC047 17/16 Q1014 RERA=
SPECI LKMT 222346Z 29013KT 260V340 6000 TSRA SCT030CB 22/13 Q1012 RMK REG QNH 1007=
METAR LKNA 222300Z 33012KT CAVOK 21/13 Q1013=
METAR LKPD 222300Z 11008KT 9999 FEW040CB BKN100 18/18 Q1010 RETSRA=
METAR LKPR 222330Z 34008KT 9000 -TSRA FEW003 BKN046CB 16/16 Q1014 NOSIG RMK REG QNH 1007=
METAR LKTB 222330Z 33014KT 9999 VCSH FEW040TCU 21/16 Q1011 NOSIG RMK REG QNH 1007=
METAR LKVO NIL
METAR LOWI 222320Z AUTO VRB01KT 9999 FEW100 21/15 Q1017=
METAR LOWL 222320Z AUTO VRB02KT 9999 FEW120 22/16 Q1012=
METAR LOWS 222320Z AUTO 16010KT 9999 FEW080 SCT250 22/15 Q1014=
METAR LOWW 222320Z 17006KT 160V230 CAVOK 22/17 Q1011 NOSIG=
METAR LZIB 222330Z 14002KT CAVOK 24/17 Q1010=
METAR LZKZ 222330Z 32003KT 250V350 CAVOK 18/14 Q1012=
METAR LZPP 222330Z AUTO 26003KT 240V300 9999 OVC220/// 22/14 Q1010=
METAR LZSL 222330Z 23001KT CAVOK 17/11 Q1013=
METAR LZTT 222330Z 23005KT CAVOK 17/08 Q1013=
METAR LZZI 222330Z VRB01KT CAVOK 18/14 Q1011=